Time;durP1;ratioP1;P1;durP2;ratioP2;P2;SDS_P1;SDS_P2;PMS_P1;PMS_P2;Temp;Humidity;BMP_temperature;BMP_pressure;BME280_temperature;BME280_humidity;BME280_pressure;Samples;Min_cycle;Max_cycle;Signal;HPM_P1;HPM_P2
2022/06/15 00:00:07;;;;;;;3.52;0.70;;;;;;;13.07;100.00;99718.11;1783192;78;20941;-53
2022/06/15 00:02:36;;;;;;;1.25;0.60;;;;;;;13.05;100.00;99718.67;1752684;80;21911;-55
2022/06/15 00:05:03;;;;;;;1.98;0.60;;;;;;;13.02;100.00;99721.54;1745267;80;21969;-55
2022/06/15 00:07:31;;;;;;;2.75;0.57;;;;;;;13.00;100.00;99721.27;1776902;78;20883;-54
2022/06/15 00:09:57;;;;;;;1.95;0.60;;;;;;;12.96;100.00;99722.39;1777732;78;20942;-55
2022/06/15 00:12:25;;;;;;;1.52;0.82;;;;;;;12.94;100.00;99722.47;1784011;78;20898;-55
2022/06/15 00:14:52;;;;;;;3.35;0.50;;;;;;;12.95;100.00;99721.52;1778637;79;20976;-55
2022/06/15 00:17:18;;;;;;;1.40;0.47;;;;;;;12.95;100.00;99717.47;1763016;79;21311;-55
2022/06/15 00:19:45;;;;;;;7.22;0.60;;;;;;;12.96;100.00;99719.69;1752076;80;20874;-54
2022/06/15 00:22:11;;;;;;;1.10;0.50;;;;;;;12.98;100.00;99717.77;1776553;78;20878;-55
2022/06/15 00:24:39;;;;;;;1.62;0.72;;;;;;;12.99;100.00;99719.52;1754958;79;20985;-54
2022/06/15 00:27:06;;;;;;;4.05;0.80;;;;;;;13.00;100.00;99719.91;1748478;80;20961;-57
2022/06/15 00:29:33;;;;;;;1.42;0.62;;;;;;;13.02;100.00;99713.91;1778116;78;21451;-55
2022/06/15 00:32:00;;;;;;;1.00;0.60;;;;;;;13.03;100.00;99719.72;1779505;79;20905;-55
2022/06/15 00:34:27;;;;;;;3.40;0.60;;;;;;;13.03;100.00;99715.66;1783333;78;20901;-54
2022/06/15 00:36:53;;;;;;;1.02;0.60;;;;;;;13.04;100.00;99712.88;1770838;79;20957;-55
2022/06/15 00:39:21;;;;;;;3.92;1.00;;;;;;;13.04;100.00;99710.17;1754304;79;20933;-54
2022/06/15 00:41:47;;;;;;;0.82;0.60;;;;;;;13.05;100.00;99709.69;1754156;80;21093;-55
2022/06/15 00:44:24;;;;;;;2.62;0.60;;;;;;;13.04;100.00;99706.59;1755476;80;21332;-55
2022/06/15 00:46:53;;;;;;;1.22;0.57;;;;;;;13.02;100.00;99711.21;1773885;79;21546;-55
2022/06/15 00:49:37;;;;;;;1.27;0.70;;;;;;;13.02;100.00;99705.81;1772786;78;21423;-55
2022/06/15 00:52:13;;;;;;;2.98;0.70;;;;;;;13.00;100.00;99708.62;1775201;79;21594;-54
2022/06/15 00:54:40;;;;;;;1.52;0.60;;;;;;;12.99;100.00;99705.53;1770791;78;21188;-56
2022/06/15 00:57:06;;;;;;;1.40;0.50;;;;;;;12.97;100.00;99706.09;1774512;78;21053;-55
2022/06/15 00:59:52;;;;;;;5.95;0.70;;;;;;;12.94;100.00;99704.91;1770961;78;21067;-55
2022/06/15 01:02:19;;;;;;;1.55;0.60;;;;;;;12.91;100.00;99707.81;1773540;78;21088;-54
2022/06/15 01:04:53;;;;;;;3.45;0.60;;;;;;;12.91;100.00;99705.11;1774632;78;21488;-55
2022/06/15 01:07:28;;;;;;;2.98;0.65;;;;;;;12.90;100.00;99706.06;1772477;78;21522;-53
2022/06/15 01:10:20;;;;;;;1.95;0.70;;;;;;;12.89;100.00;99704.32;1769086;79;21061;-55
2022/06/15 01:13:15;;;;;;;2.30;0.57;;;;;;;12.89;100.00;99712.42;1772568;79;21080;-56
2022/06/15 01:15:51;;;;;;;1.27;0.68;;;;;;;12.89;100.00;99714.65;1773887;79;21080;-56
2022/06/15 01:18:35;;;;;;;2.60;0.50;;;;;;;12.89;100.00;99713.30;1766473;79;21565;-53
2022/06/15 01:21:22;;;;;;;1.62;0.70;;;;;;;12.91;100.00;99719.97;1771077;79;21715;-52
2022/06/15 01:24:19;;;;;;;2.00;0.60;;;;;;;12.95;100.00;99721.99;1776569;78;21044;-49
2022/06/15 01:27:06;;;;;;;2.30;0.70;;;;;;;12.96;100.00;99721.91;1776717;79;21092;-50
2022/06/15 01:30:16;;;;;;;1.65;0.70;;;;;;;12.99;100.00;99716.34;1759003;78;21021;-48
2022/06/15 01:33:06;;;;;;;3.15;0.80;;;;;;;13.01;100.00;99721.18;1764764;79;21014;-48
2022/06/15 01:36:00;;;;;;;0.90;0.50;;;;;;;13.03;100.00;99719.23;1768634;79;21467;-51
2022/06/15 01:38:37;;;;;;;3.22;0.70;;;;;;;13.03;100.00;99721.06;1763541;79;21069;-51
2022/06/15 01:41:15;;;;;;;1.20;0.60;;;;;;;13.01;100.00;99724.36;1769495;79;21263;-51
2022/06/15 01:43:58;;;;;;;1.20;0.40;;;;;;;13.00;100.00;99722.62;1762129;79;21045;-50
2022/06/15 01:46:27;;;;;;;1.30;0.40;;;;;;;12.99;100.00;99727.63;1767077;79;21112;-52
2022/06/15 01:48:55;;;;;;;3.02;0.60;;;;;;;12.97;100.00;99733.59;1765938;79;21619;-53
2022/06/15 01:51:33;;;;;;;1.37;0.50;;;;;;;12.94;100.00;99735.98;1768465;79;21300;-52
2022/06/15 01:54:13;;;;;;;2.60;0.40;;;;;;;12.89;100.00;99729.51;1769999;79;21069;-53
2022/06/15 01:56:47;;;;;;;1.87;0.50;;;;;;;12.87;100.00;99732.77;1773516;79;21046;-53
2022/06/15 01:59:23;;;;;;;2.20;0.50;;;;;;;12.85;100.00;99740.09;1766622;79;21124;-53
2022/06/15 02:02:24;;;;;;;1.27;0.40;;;;;;;12.83;100.00;99735.75;1769425;79;21447;-53
2022/06/15 02:05:16;;;;;;;0.80;0.30;;;;;;;12.81;100.00;99736.31;1767017;79;21034;-52
2022/06/15 02:08:14;;;;;;;2.17;0.40;;;;;;;12.79;100.00;99743.15;1763646;79;21068;-53
2022/06/15 02:10:51;;;;;;;0.55;0.30;;;;;;;12.77;100.00;99748.23;1767458;79;21478;-53
2022/06/15 02:13:30;;;;;;;1.67;0.30;;;;;;;12.74;100.00;99751.13;1764353;79;21105;-53
2022/06/15 02:16:04;;;;;;;2.58;0.30;;;;;;;12.72;100.00;99751.22;1767368;78;21474;-53
2022/06/15 02:18:32;;;;;;;;;;;;;;;12.73;100.00;99748.03;1782161;78;21108;-53
2022/06/15 02:21:06;;;;;;;0.93;0.40;;;;;;;12.74;100.00;99753.36;1774204;78;20211;-52
2022/06/15 02:23:34;;;;;;;1.25;0.30;;;;;;;12.77;100.00;99753.64;1745399;80;21075;-52
2022/06/15 02:26:01;;;;;;;0.70;0.30;;;;;;;12.79;100.00;99754.43;1773284;79;21108;-53
2022/06/15 02:28:32;;;;;;;1.70;0.50;;;;;;;12.83;100.00;99764.12;1782121;78;21495;-52
2022/06/15 02:30:59;;;;;;;0.93;0.40;;;;;;;12.85;100.00;99760.34;1737073;80;21129;-53
2022/06/15 02:33:33;;;;;;;1.30;0.30;;;;;;;12.89;100.00;99767.80;1775582;78;20929;-53
2022/06/15 02:36:02;;;;;;;2.60;0.40;;;;;;;12.91;100.00;99765.02;1744319;80;21062;-53
2022/06/15 02:38:30;;;;;;;0.88;0.30;;;;;;;12.93;100.00;99765.30;1774920;78;21099;-52
2022/06/15 02:40:57;;;;;;;0.62;0.30;;;;;;;12.95;100.00;99762.04;1779576;78;21484;-52
2022/06/15 02:43:27;;;;;;;3.22;0.40;;;;;;;12.95;100.00;99758.47;1716294;80;21056;-53
2022/06/15 02:45:56;;;;;;;1.42;0.53;;;;;;;12.94;100.00;99766.17;1778885;79;21084;-53
2022/06/15 02:48:25;;;;;;;1.10;0.40;;;;;;;12.93;100.00;99763.95;1772175;78;21072;-53
2022/06/15 02:51:08;;;;;;;0.70;0.30;;;;;;;12.92;100.00;99768.12;1771659;78;21060;-53
2022/06/15 02:53:36;;;;;;;0.90;0.40;;;;;;;12.92;100.00;99770.82;1769293;79;21274;-54
2022/06/15 02:56:03;;;;;;;0.50;0.30;;;;;;;12.92;100.00;99773.52;1778317;78;20906;-52
2022/06/15 02:58:33;;;;;;;3.30;0.60;;;;;;;12.89;100.00;99775.91;1747946;80;20965;-52
2022/06/15 03:01:02;;;;;;;0.93;0.40;;;;;;;12.88;100.00;99770.98;1778179;79;20957;-53
2022/06/15 03:03:30;;;;;;;0.88;0.50;;;;;;;12.87;100.00;99769.24;1760104;80;21520;-53
2022/06/15 03:06:18;;;;;;;4.60;0.30;;;;;;;12.87;100.00;99767.89;1761525;80;21073;-52
2022/06/15 03:08:45;;;;;;;0.88;0.30;;;;;;;12.89;100.00;99772.73;1760872;80;21527;-51
2022/06/15 03:11:15;;;;;;;1.40;0.35;;;;;;;12.94;100.00;99771.58;1778798;78;20906;-52
2022/06/15 03:13:42;;;;;;;0.62;0.30;;;;;;;12.98;100.00;99767.28;1778451;78;21080;-53
2022/06/15 03:16:09;;;;;;;0.75;0.40;;;;;;;13.03;100.00;99769.22;1759588;80;21593;-52
2022/06/15 03:18:39;;;;;;;1.10;0.40;;;;;;;13.07;100.00;99766.75;1779375;79;21092;-53
2022/06/15 03:21:07;;;;;;;0.62;0.30;;;;;;;13.14;100.00;99765.94;1776371;78;20941;-53
2022/06/15 03:23:34;;;;;;;1.98;0.30;;;;;;;13.19;100.00;99771.93;1781153;79;20937;-53
2022/06/15 03:26:02;;;;;;;0.62;0.30;;;;;;;13.24;100.00;99771.20;1777773;79;21371;-53
2022/06/15 03:28:31;;;;;;;1.12;0.30;;;;;;;13.27;100.00;99774.22;1748166;80;20953;-52
2022/06/15 03:30:59;;;;;;;0.55;0.20;;;;;;;13.28;100.00;99772.75;1765447;80;21847;-51
2022/06/15 03:33:26;;;;;;;2.17;0.30;;;;;;;13.30;100.00;99774.89;1746138;79;20941;-49
2022/06/15 03:35:52;;;;;;;0.70;0.30;;;;;;;13.31;100.00;99780.69;1766629;80;20861;-50
2022/06/15 03:38:20;;;;;;;0.62;0.20;;;;;;;13.31;100.00;99780.69;1767941;80;21089;-49
2022/06/15 03:40:50;;;;;;;0.40;0.20;;;;;;;13.32;100.00;99782.44;1768947;79;21503;-52
2022/06/15 03:43:17;;;;;;;2.77;0.23;;;;;;;13.32;100.00;99786.48;1761347;79;21860;-50
2022/06/15 03:45:43;;;;;;;1.30;0.30;;;;;;;13.35;100.00;99786.80;1767015;79;21033;-52
2022/06/15 03:48:11;;;;;;;1.17;0.20;;;;;;;13.39;100.00;99791.92;1764933;79;21065;-51
2022/06/15 03:50:38;;;;;;;0.80;0.30;;;;;;;13.47;100.00;99799.57;1749691;80;21085;-49
2022/06/15 03:53:05;;;;;;;0.88;0.30;;;;;;;13.53;100.00;99800.55;1784606;78;21519;-52
2022/06/15 03:55:35;;;;;;;0.40;0.23;;;;;;;13.58;100.00;99798.46;1767080;79;21280;-48
2022/06/15 03:58:03;;;;;;;0.75;0.42;;;;;;;13.60;100.00;99800.60;1777536;78;21078;-51
2022/06/15 04:00:32;;;;;;;0.45;0.20;;;;;;;13.65;100.00;99794.42;1766713;79;21092;-50
2022/06/15 04:03:00;;;;;;;0.53;0.20;;;;;;;13.70;100.00;99805.83;1770340;79;21124;-53
2022/06/15 04:05:34;;;;;;;0.50;0.20;;;;;;;13.74;100.00;99806.04;1756950;79;21056;-54
2022/06/15 04:10:50;;;;;;;0.78;0.30;;;;;;;13.82;100.00;99810.98;1766627;79;21080;-54
2022/06/15 04:13:20;;;;;;;0.72;0.20;;;;;;;13.85;100.00;99808.11;1766929;79;21339;-53
2022/06/15 04:15:48;;;;;;;1.15;0.40;;;;;;;13.89;100.00;99812.35;1769241;79;21013;-55
2022/06/15 04:18:16;;;;;;;1.95;0.30;;;;;;;13.92;100.00;99809.47;1768785;79;21010;-56
2022/06/15 04:20:45;;;;;;;0.53;0.20;;;;;;;13.97;100.00;99804.63;1783700;78;21221;-56
2022/06/15 04:23:17;;;;;;;0.85;0.30;;;;;;;14.03;100.00;99808.83;1777945;78;21047;-57
2022/06/15 04:25:59;;;;;;;1.77;0.13;;;;;;;14.11;100.00;99804.68;1743644;80;21116;-54
2022/06/15 04:28:30;;;;;;;0.45;0.20;;;;;;;14.19;100.00;99805.08;1784670;78;21634;-56
2022/06/15 04:30:58;;;;;;;0.53;0.20;;;;;;;14.28;100.00;99808.56;1783616;78;21053;-55
2022/06/15 04:33:28;;;;;;;2.22;0.40;;;;;;;14.33;100.00;99803.72;1762963;79;21837;-57
2022/06/15 04:36:40;;;;;;;1.17;0.20;;;;;;;14.45;100.00;99800.77;1798199;77;22490;-58
2022/06/15 04:39:08;;;;;;;2.05;0.20;;;;;;;14.46;100.00;99805.70;1715324;82;21052;-58
2022/06/15 04:41:38;;;;;;;0.68;0.20;;;;;;;14.49;100.00;99806.84;1722241;81;21256;-56
2022/06/15 04:44:06;;;;;;;0.60;0.20;;;;;;;14.49;100.00;99805.00;1714961;81;20982;-54
2022/06/15 04:46:34;;;;;;;1.77;0.23;;;;;;;14.50;100.00;99808.58;1711671;81;20989;-57
2022/06/15 04:49:01;;;;;;;0.45;0.20;;;;;;;14.51;100.00;99808.97;1736612;80;21328;-55
2022/06/15 04:51:30;;;;;;;0.85;0.28;;;;;;;14.53;100.00;99801.63;1740799;81;20987;-56
2022/06/15 04:53:59;;;;;;;0.40;0.30;;;;;;;14.57;100.00;99812.16;1744541;80;21152;-56
2022/06/15 04:56:26;;;;;;;1.62;0.30;;;;;;;14.60;100.00;99806.55;1719178;82;21495;-56
2022/06/15 04:58:53;;;;;;;3.98;0.42;;;;;;;14.64;100.00;99811.27;1731421;81;22045;-55
2022/06/15 05:01:20;;;;;;;1.75;0.20;;;;;;;14.72;100.00;99808.94;1736374;81;21629;-55
2022/06/15 05:03:47;;;;;;;2.15;0.20;;;;;;;14.76;100.00;99805.08;1735624;80;21511;-55
2022/06/15 05:06:28;;;;;;;0.90;0.20;;;;;;;14.76;100.00;99805.08;1734885;80;21521;-58
2022/06/15 05:08:55;;;;;;;1.50;0.20;;;;;;;14.83;100.00;99810.48;1735264;80;21023;-57
2022/06/15 05:11:22;;;;;;;2.35;0.30;;;;;;;14.90;100.00;99813.17;1731360;80;21060;-58
2022/06/15 05:13:50;;;;;;;1.22;0.20;;;;;;;14.99;100.00;99812.58;1737229;81;21313;-55
2022/06/15 05:16:18;;;;;;;3.52;0.20;;;;;;;15.08;100.00;99820.11;1732089;80;21511;-56
2022/06/15 05:18:47;;;;;;;0.47;0.20;;;;;;;15.15;100.00;99817.37;1696291;81;21177;-55
2022/06/15 05:21:16;;;;;;;0.53;0.28;;;;;;;15.21;100.00;99818.84;1707681;81;21231;-56
2022/06/15 05:23:44;;;;;;;0.62;0.20;;;;;;;15.26;100.00;99822.09;1697350;82;21329;-56
2022/06/15 05:26:12;;;;;;;1.00;0.20;;;;;;;15.30;100.00;99825.49;1676532;83;21697;-55
2022/06/15 05:28:41;;;;;;;0.55;0.23;;;;;;;15.33;100.00;99819.36;1679745;83;21355;-56
2022/06/15 05:31:14;;;;;;;0.50;0.20;;;;;;;15.40;100.00;99811.67;1735122;80;21219;-54
2022/06/15 05:33:40;;;;;;;0.50;0.20;;;;;;;15.44;100.00;99816.81;1701716;82;21427;-56
2022/06/15 05:36:12;;;;;;;1.55;0.20;;;;;;;15.48;100.00;99816.13;1666883;84;21108;-58
2022/06/15 05:38:39;;;;;;;0.90;0.25;;;;;;;15.47;100.00;99812.55;1643410;85;21132;-59
2022/06/15 05:41:07;;;;;;;1.25;0.20;;;;;;;15.46;100.00;99805.86;1657035;85;21095;-57
2022/06/15 05:43:36;;;;;;;0.53;0.20;;;;;;;15.50;100.00;99819.09;1653162;84;21298;-57
2022/06/15 05:46:30;;;;;;;1.32;0.28;;;;;;;15.54;100.00;99814.87;1661003;84;21059;-55
2022/06/15 05:49:01;;;;;;;0.20;0.10;;;;;;;15.58;100.00;99825.39;1633652;84;21108;-57
2022/06/15 05:51:30;;;;;;;0.60;0.10;;;;;;;15.62;100.00;99812.02;1692747;81;21018;-54
2022/06/15 05:53:58;;;;;;;4.12;0.50;;;;;;;15.68;100.00;99818.37;1709685;81;21511;-57
2022/06/15 05:56:24;;;;;;;3.17;0.20;;;;;;;15.75;100.00;99814.75;1720745;81;22313;-57
2022/06/15 05:58:51;;;;;;;0.45;0.20;;;;;;;15.81;100.00;99816.58;1712955;81;21417;-55
2022/06/15 06:01:28;;;;;;;1.27;0.20;;;;;;;15.89;100.00;99820.99;1708303;81;21050;-57
2022/06/15 06:03:54;;;;;;;0.40;0.15;;;;;;;15.98;100.00;99822.69;1711512;81;20948;-55
2022/06/15 06:06:20;;;;;;;2.20;0.25;;;;;;;16.08;100.00;99825.98;1713812;81;21386;-56
2022/06/15 06:08:48;;;;;;;0.40;0.20;;;;;;;16.16;100.00;99820.05;1717440;81;21101;-56
2022/06/15 06:11:14;;;;;;;1.75;0.20;;;;;;;16.22;100.00;99817.77;1715022;81;21010;-56
2022/06/15 06:13:42;;;;;;;2.30;0.20;;;;;;;16.27;100.00;99818.79;1714186;81;21500;-57
2022/06/15 06:16:10;;;;;;;0.60;0.25;;;;;;;16.32;100.00;99815.28;1720916;81;21093;-55
2022/06/15 06:18:36;;;;;;;0.82;0.30;;;;;;;16.38;100.00;99822.11;1703585;81;21548;-56
2022/06/15 06:21:05;;;;;;;0.47;0.20;;;;;;;16.41;100.00;99818.70;1707266;81;21298;-56
2022/06/15 06:23:34;;;;;;;0.80;0.20;;;;;;;16.46;100.00;99818.36;1707845;81;21244;-56
2022/06/15 06:26:01;;;;;;;1.10;0.40;;;;;;;16.50;100.00;99818.53;1710781;81;21657;-54
2022/06/15 06:28:33;;;;;;;0.85;0.30;;;;;;;16.55;100.00;99820.42;1705817;81;21140;-58
2022/06/15 06:31:03;;;;;;;0.53;0.20;;;;;;;16.59;100.00;99815.12;1708904;81;21041;-56
2022/06/15 06:33:32;;;;;;;2.45;0.23;;;;;;;16.68;100.00;99819.94;1707802;81;21830;-55
2022/06/15 06:36:02;;;;;;;1.98;0.30;;;;;;;16.74;100.00;99825.44;1710049;81;21503;-54
2022/06/15 06:38:29;;;;;;;0.25;0.10;;;;;;;16.75;100.00;99823.11;1715890;81;21274;-54
2022/06/15 06:40:55;;;;;;;0.50;0.23;;;;;;;16.76;100.00;99822.97;1720763;81;21078;-55
2022/06/15 06:43:22;;;;;;;0.80;0.30;;;;;;;16.81;100.00;99825.37;1716525;81;20949;-55
2022/06/15 06:45:49;;;;;;;1.00;0.20;;;;;;;16.89;100.00;99821.60;1715527;82;21213;-55
2022/06/15 06:48:16;;;;;;;1.60;0.20;;;;;;;16.93;100.00;99832.61;1713754;81;21681;-58
2022/06/15 06:50:42;;;;;;;0.50;0.20;;;;;;;16.96;100.00;99822.40;1720520;82;21634;-56
2022/06/15 06:53:10;;;;;;;0.65;0.20;;;;;;;16.99;100.00;99826.27;1715508;81;21037;-56
2022/06/15 06:55:37;;;;;;;0.45;0.30;;;;;;;17.05;100.00;99824.06;1716087;82;21327;-57
2022/06/15 06:58:04;;;;;;;0.65;0.20;;;;;;;17.10;100.00;99817.29;1720600;81;21557;-57
2022/06/15 07:00:33;;;;;;;2.12;0.20;;;;;;;17.18;100.00;99812.67;1722180;81;21089;-57
2022/06/15 07:03:00;;;;;;;3.70;0.20;;;;;;;17.25;100.00;99814.81;1716326;81;21025;-57
2022/06/15 07:05:28;;;;;;;0.55;0.20;;;;;;;17.31;100.00;99827.95;1711077;82;21386;-56
2022/06/15 07:07:55;;;;;;;0.80;0.20;;;;;;;17.33;100.00;99817.83;1715041;81;20981;-59
2022/06/15 07:10:25;;;;;;;0.65;0.30;;;;;;;17.38;100.00;99821.06;1719618;82;22616;-57
2022/06/15 07:12:51;;;;;;;0.42;0.20;;;;;;;17.44;100.00;99822.96;1714434;81;21127;-57
2022/06/15 07:15:19;;;;;;;0.47;0.10;;;;;;;17.48;100.00;99831.25;1715602;82;21291;-57
2022/06/15 07:17:47;;;;;;;0.65;0.20;;;;;;;17.51;100.00;99829.67;1720214;82;21126;-56
2022/06/15 07:20:14;;;;;;;0.47;0.20;;;;;;;17.55;100.00;99839.33;1713589;82;21503;-57
2022/06/15 07:22:41;;;;;;;1.50;0.30;;;;;;;17.60;100.00;99823.05;1712480;82;21993;-56
2022/06/15 07:25:09;;;;;;;0.45;0.30;;;;;;;17.64;100.00;99829.14;1718551;82;21063;-57
2022/06/15 07:27:38;;;;;;;0.70;0.20;;;;;;;17.65;100.00;99824.08;1718940;81;22011;-57
2022/06/15 07:30:06;;;;;;;3.70;0.23;;;;;;;17.70;100.00;99825.94;1716065;82;21539;-57
2022/06/15 07:32:35;;;;;;;0.68;0.20;;;;;;;17.78;100.00;99833.03;1718756;81;21062;-57
2022/06/15 07:35:04;;;;;;;1.70;0.30;;;;;;;17.88;100.00;99825.02;1703944;82;21620;-56
2022/06/15 07:37:31;;;;;;;1.47;0.20;;;;;;;17.96;100.00;99822.08;1728446;80;21040;-57
2022/06/15 07:39:58;;;;;;;0.30;0.20;;;;;;;18.03;100.00;99824.70;1729741;80;21079;-56
2022/06/15 07:42:25;;;;;;;1.00;0.30;;;;;;;18.12;100.00;99828.56;1729324;80;21539;-57
2022/06/15 07:44:52;;;;;;;0.57;0.10;;;;;;;18.20;100.00;99823.91;1728187;80;21530;-57
2022/06/15 07:50:05;;;;;;;0.55;0.20;;;;;;;18.34;100.00;99819.09;1728392;80;21075;-57
2022/06/15 07:52:38;;;;;;;0.47;0.20;;;;;;;18.40;100.00;99817.73;1726493;80;21451;-58
2022/06/15 07:55:08;;;;;;;0.93;0.17;;;;;;;18.43;100.00;99817.50;1728821;82;21012;-57
2022/06/15 07:57:34;;;;;;;1.42;0.10;;;;;;;18.52;100.00;99808.09;1729565;82;21439;-56
2022/06/15 08:00:01;;;;;;;0.45;0.25;;;;;;;18.63;100.00;99822.23;1728140;80;21159;-57
2022/06/15 08:02:28;;;;;;;0.53;0.20;;;;;;;18.67;100.00;99816.06;1730387;80;21042;-57
2022/06/15 08:04:55;;;;;;;2.05;0.20;;;;;;;18.66;100.00;99819.28;1725383;80;21078;-56
2022/06/15 08:07:21;;;;;;;2.25;0.50;;;;;;;18.68;100.00;99811.85;1727988;80;22405;-59
2022/06/15 08:09:47;;;;;;;0.42;0.20;;;;;;;18.75;100.00;99813.58;1729263;80;21048;-58
2022/06/15 08:12:23;;;;;;;0.30;0.17;;;;;;;18.84;100.00;99811.47;1702744;82;21265;-57
2022/06/15 08:14:52;;;;;;;0.40;0.20;;;;;;;18.85;100.00;99804.53;1726317;82;21044;-57
2022/06/15 08:17:33;;;;;;;0.57;0.20;;;;;;;18.95;100.00;99809.24;1728144;80;21784;-58
2022/06/15 08:20:14;;;;;;;0.37;0.10;;;;;;;19.07;100.00;99803.63;1711402;82;21092;-55
2022/06/15 08:22:44;;;;;;;0.20;0.10;;;;;;;19.21;100.00;99810.69;1729829;80;21063;-56
2022/06/15 08:25:17;;;;;;;1.32;0.20;;;;;;;19.28;100.00;99813.28;1729219;80;21992;-56
2022/06/15 08:27:44;;;;;;;0.85;0.17;;;;;;;19.25;100.00;99818.98;1722799;82;21015;-56
2022/06/15 08:30:12;;;;;;;1.95;0.10;;;;;;;19.21;100.00;99803.37;1705411;80;21350;-54
2022/06/15 08:32:39;;;;;;;1.95;0.20;;;;;;;19.23;100.00;99805.95;1733311;80;21001;-57
2022/06/15 08:35:06;;;;;;;0.40;0.17;;;;;;;19.27;100.00;99805.59;1732484;81;21052;-56
2022/06/15 08:37:33;;;;;;;0.50;0.20;;;;;;;19.34;100.00;99803.20;1722088;82;22606;-57
2022/06/15 08:40:01;;;;;;;0.40;0.20;;;;;;;19.41;100.00;99805.78;1683198;82;21058;-56
2022/06/15 08:42:59;;;;;;;2.62;0.20;;;;;;;19.44;100.00;99811.00;1673342;84;21162;-57
2022/06/15 08:45:45;;;;;;;3.10;0.20;;;;;;;19.43;100.00;99806.53;1723056;81;21634;-56
2022/06/15 08:48:50;;;;;;;1.62;0.10;;;;;;;19.47;100.00;99801.23;1718501;81;21068;-57
2022/06/15 08:51:29;;;;;;;;;;;;;;;19.55;100.00;99793.76;1687863;83;21522;-59
2022/06/15 08:54:07;;;;;;;0.98;0.17;;;;;;;19.59;100.00;99807.00;1661067;85;20171;-62
2022/06/15 08:56:45;;;;;;;1.45;0.20;;;;;;;19.54;100.00;99807.03;1689665;81;20886;-57
2022/06/15 08:59:48;;;;;;;0.75;0.10;;;;;;;19.55;100.00;99806.04;1724299;81;20900;-58
2022/06/15 09:02:22;;;;;;;0.10;0.10;;;;;;;19.62;100.00;99802.66;1724974;81;21009;-58
2022/06/15 09:05:20;;;;;;;0.28;0.15;;;;;;;19.68;100.00;99800.39;1719099;81;20934;-59
2022/06/15 09:08:11;;;;;;;0.50;0.20;;;;;;;19.74;100.00;99803.46;1723629;81;21494;-55
2022/06/15 09:10:55;;;;;;;0.40;0.20;;;;;;;19.78;100.00;99809.05;1723198;81;21252;-54
2022/06/15 09:13:57;;;;;;;0.50;0.10;;;;;;;19.78;100.00;99807.68;1721191;81;21590;-55
2022/06/15 09:16:51;;;;;;;0.93;0.10;;;;;;;19.85;100.00;99812.98;1722942;81;20941;-58
2022/06/15 09:19:26;;;;;;;0.23;0.10;;;;;;;19.91;100.00;99806.11;1720349;81;21098;-56
2022/06/15 09:22:06;;;;;;;0.40;0.17;;;;;;;19.97;100.00;99806.98;1722383;81;20871;-60
2022/06/15 09:24:39;;;;;;;0.13;0.10;;;;;;;20.06;100.00;99803.45;1726032;80;20879;-56
2022/06/15 09:27:12;;;;;;;0.35;0.10;;;;;;;20.15;100.00;99792.22;1724644;81;22032;-55
2022/06/15 09:29:45;;;;;;;0.40;0.13;;;;;;;20.17;100.00;99798.39;1721817;80;20950;-57
2022/06/15 09:32:17;;;;;;;0.95;0.10;;;;;;;20.22;100.00;99793.41;1725948;80;21252;-56
2022/06/15 09:34:49;;;;;;;0.90;0.30;;;;;;;20.27;100.00;99792.00;1725818;81;20960;-57
2022/06/15 09:37:21;;;;;;;1.32;0.20;;;;;;;20.35;100.00;99796.33;1713752;81;21072;-56
2022/06/15 09:39:48;;;;;;;0.10;0.10;;;;;;;20.43;100.00;99795.65;1692843;82;22287;-56
2022/06/15 09:42:21;;;;;;;0.93;0.10;;;;;;;20.45;100.00;99803.72;1695081;83;21570;-55
2022/06/15 09:45:18;;;;;;;0.70;0.20;;;;;;;20.40;100.00;99802.77;1697057;82;21476;-57
2022/06/15 09:47:56;;;;;;;0.93;0.10;;;;;;;20.31;100.00;99804.41;1695685;82;21436;-59
2022/06/15 09:50:34;;;;;;;0.23;0.10;;;;;;;20.18;100.00;99800.12;1647015;84;21092;-59
2022/06/15 09:53:24;;;;;;;0.20;0.10;;;;;;;20.06;100.00;99793.89;1687331;82;21129;-55
2022/06/15 09:55:56;;;;;;;0.20;0.13;;;;;;;20.04;100.00;99798.61;1694961;82;21117;-58
2022/06/15 09:58:27;;;;;;;0.33;0.10;;;;;;;20.12;100.00;99786.52;1697086;82;21099;-61
2022/06/15 10:00:54;;;;;;;1.82;0.20;;;;;;;20.26;100.00;99799.83;1692755;82;21497;-55
2022/06/15 10:03:36;;;;;;;0.30;0.10;;;;;;;20.33;100.00;99797.45;1675166;82;21729;-57
2022/06/15 10:06:20;;;;;;;1.17;0.10;;;;;;;20.30;100.00;99790.38;1691812;82;21531;-57
2022/06/15 10:08:48;;;;;;;3.02;0.28;;;;;;;20.27;100.00;99783.80;1696230;82;21148;-56
2022/06/15 10:11:18;;;;;;;3.72;0.10;;;;;;;20.28;100.00;99784.17;1696690;82;21206;-56
2022/06/15 10:13:44;;;;;;;1.12;0.10;;;;;;;20.34;100.00;99782.28;1673108;82;21065;-63
2022/06/15 10:16:20;;;;;;;0.13;0.10;;;;;;;20.37;100.00;99775.20;1671859;83;22268;-58
2022/06/15 10:18:49;;;;;;;0.20;0.10;;;;;;;20.46;100.00;99789.05;1696081;82;21125;-58
2022/06/15 10:21:22;;;;;;;0.70;0.10;;;;;;;20.57;100.00;99769.33;1695608;82;22214;-61
2022/06/15 10:24:09;;;;;;;0.28;0.15;;;;;;;20.72;100.00;99760.25;1698607;82;21379;-54
2022/06/15 10:26:46;;;;;;;0.20;0.10;;;;;;;20.87;100.00;99771.67;1689896;82;21145;-57
2022/06/15 10:29:23;;;;;;;0.55;0.20;;;;;;;20.95;100.00;99780.05;1695641;82;21520;-56
2022/06/15 10:32:14;;;;;;;1.35;0.10;;;;;;;20.95;100.00;99772.70;1691534;82;22531;-56
2022/06/15 10:35:10;;;;;;;0.10;0.10;;;;;;;20.95;100.00;99770.47;1697050;82;21113;-56
2022/06/15 10:37:44;;;;;;;1.20;0.10;;;;;;;20.92;100.00;99772.14;1709445;81;21079;-58
2022/06/15 10:40:22;;;;;;;0.20;0.10;;;;;;;20.79;100.00;99771.00;1720227;81;20995;-59
2022/06/15 10:42:53;;;;;;;0.80;0.10;;;;;;;20.76;100.00;99776.23;1722605;81;21093;-57
2022/06/15 10:45:30;;;;;;;0.60;0.10;;;;;;;20.79;100.00;99777.84;1719201;80;21060;-57
2022/06/15 10:48:07;;;;;;;0.13;0.10;;;;;;;20.83;100.00;99781.17;1722149;81;21091;-58
2022/06/15 10:50:44;;;;;;;0.20;0.10;;;;;;;20.78;100.00;99774.73;1716670;81;21874;-58
2022/06/15 10:53:42;;;;;;;0.28;0.10;;;;;;;20.68;100.00;99773.32;1693115;81;21058;-59
2022/06/15 11:02:38;;;;;;;0.10;0.10;;;;;;;20.49;100.00;99766.42;1717026;81;21432;-55
2022/06/15 11:05:13;;;;;;;0.15;0.10;;;;;;;20.52;100.00;99766.63;1716348;81;21232;-56
2022/06/15 11:07:55;;;;;;;1.15;0.10;;;;;;;20.49;100.00;99762.32;1716600;81;21034;-58
2022/06/15 11:10:35;;;;;;;0.20;0.10;;;;;;;20.45;100.00;99757.23;1713750;81;21211;-57
2022/06/15 11:13:07;;;;;;;1.52;0.10;;;;;;;20.43;100.00;99761.97;1715102;81;21064;-57
2022/06/15 11:18:39;;;;;;;0.50;0.10;;;;;;;20.39;100.00;99751.33;1715166;82;20952;-56
2022/06/15 11:21:14;;;;;;;1.87;0.10;;;;;;;20.50;100.00;99749.52;1713991;81;21061;-58
2022/06/15 11:23:58;;;;;;;0.65;0.10;;;;;;;20.64;100.00;99750.50;1716677;81;22057;-56
2022/06/15 11:26:52;;;;;;;0.20;0.10;;;;;;;20.72;100.00;99762.48;1716959;81;21045;-57
2022/06/15 11:29:45;;;;;;;0.17;0.10;;;;;;;20.74;100.00;99756.38;1712304;82;21081;-57
2022/06/15 11:32:52;;;;;;;0.62;0.10;;;;;;;20.71;100.00;99755.28;1714119;82;21213;-56
2022/06/15 11:35:27;;;;;;;0.20;0.10;;;;;;;20.70;100.00;99748.07;1719797;81;21388;-57
2022/06/15 11:38:34;;;;;;;0.10;0.08;;;;;;;20.76;100.00;99750.25;1707640;81;21037;-56
2022/06/15 11:41:21;;;;;;;0.20;0.10;;;;;;;20.86;100.00;99737.97;1719887;81;21047;-55
2022/06/15 11:43:50;;;;;;;0.15;0.03;;;;;;;21.00;100.00;99738.10;1720723;81;21058;-56
2022/06/15 11:46:44;;;;;;;0.20;0.10;;;;;;;21.01;100.00;99755.72;1720095;81;21159;-57
2022/06/15 11:49:42;;;;;;;0.20;0.10;;;;;;;20.95;100.00;99743.98;1717842;82;21770;-57
2022/06/15 11:52:35;;;;;;;0.25;0.10;;;;;;;20.90;100.00;99738.07;1715534;81;20965;-58
2022/06/15 11:55:19;;;;;;;0.40;0.10;;;;;;;20.90;100.00;99723.02;1719129;81;20921;-57
2022/06/15 11:57:55;;;;;;;;;;;;;;;20.98;100.00;99738.23;1722278;81;21478;-59
2022/06/15 12:00:34;;;;;;;1.47;0.10;;;;;;;21.11;100.00;99736.59;1715607;82;20718;-59
2022/06/15 12:03:35;;;;;;;1.42;0.10;;;;;;;21.28;100.00;99729.59;1716568;82;21378;-59
2022/06/15 12:06:45;;;;;;;0.23;0.10;;;;;;;21.45;100.00;99731.62;1713711;82;20903;-58
2022/06/15 12:09:38;;;;;;;0.30;0.10;;;;;;;21.65;100.00;99727.89;1717330;81;20851;-57
2022/06/15 12:15:05;;;;;;;0.50;0.10;;;;;;;21.88;100.00;99737.52;1708841;81;21677;-56